sensor_id;sensor_type;location;lat;lon;timestamp;pressure;altitude;pressure_sealevel;temperature;humidity
70815;BME280;58428;49.478;10.986;2023-07-02T21:28:02;98009.63;;;18.04;100.00
70815;BME280;58428;49.478;10.986;2023-07-02T21:30:27;98018.63;;;18.05;100.00
70815;BME280;58428;49.478;10.986;2023-07-02T21:32:53;98017.03;;;18.04;100.00
70815;BME280;58428;49.478;10.986;2023-07-02T21:35:18;98018.63;;;18.05;100.00
70815;BME280;58428;49.478;10.986;2023-07-02T21:37:45;98018.63;;;18.05;100.00
70815;BME280;58428;49.478;10.986;2023-07-02T21:40:10;98021.81;;;18.10;100.00
70815;BME280;58428;49.478;10.986;2023-07-02T21:42:36;98021.41;;;18.11;100.00
70815;BME280;58428;49.478;10.986;2023-07-02T21:45:03;98024.97;;;18.12;100.00
70815;BME280;58428;49.478;10.986;2023-07-02T21:47:28;98028.50;;;18.16;100.00
70815;BME280;58428;49.478;10.986;2023-07-02T21:49:56;98023.81;;;18.20;100.00
70815;BME280;58428;49.478;10.986;2023-07-02T21:52:22;98028.94;;;18.21;100.00
70815;BME280;58428;49.478;10.986;2023-07-02T21:54:47;98027.72;;;18.19;100.00
70815;BME280;58428;49.478;10.986;2023-07-02T21:57:14;98024.19;;;18.18;100.00
70815;BME280;58428;49.478;10.986;2023-07-02T21:59:42;98021.06;;;18.16;100.00
70815;BME280;58428;49.478;10.986;2023-07-02T22:02:11;98018.69;;;18.15;100.00
70815;BME280;58428;49.478;10.986;2023-07-02T22:04:37;98026.50;;;18.13;100.00
70815;BME280;58428;49.478;10.986;2023-07-02T22:07:02;98028.09;;;18.14;100.00
70815;BME280;58428;49.478;10.986;2023-07-02T22:09:28;98028.84;;;18.11;100.00
70815;BME280;58428;49.478;10.986;2023-07-02T22:11:56;98031.59;;;18.11;100.00
70815;BME280;58428;49.478;10.986;2023-07-02T22:14:23;98030.41;;;18.08;100.00
70815;BME280;58428;49.478;10.986;2023-07-02T22:16:49;98024.88;;;18.05;100.00
70815;BME280;58428;49.478;10.986;2023-07-02T22:19:14;98024.84;;;18.02;100.00
70815;BME280;58428;49.478;10.986;2023-07-02T22:21:40;98037.38;;;17.99;100.00
70815;BME280;58428;49.478;10.986;2023-07-02T22:24:10;98038.13;;;17.93;100.00
70815;BME280;58428;49.478;10.986;2023-07-02T22:26:36;98034.16;;;17.90;100.00
70815;BME280;58428;49.478;10.986;2023-07-02T22:29:01;98029.50;;;17.91;100.00
70815;BME280;58428;49.478;10.986;2023-07-02T22:31:27;98030.69;;;17.93;100.00
70815;BME280;58428;49.478;10.986;2023-07-02T22:33:54;98035.75;;;17.91;100.00
70815;BME280;58428;49.478;10.986;2023-07-02T22:36:20;98033.38;;;17.90;100.00
70815;BME280;58428;49.478;10.986;2023-07-02T22:38:46;98031.03;;;17.85;100.00
70815;BME280;58428;49.478;10.986;2023-07-02T22:41:11;98023.53;;;17.78;100.00
70815;BME280;58428;49.478;10.986;2023-07-02T22:43:37;98025.91;;;17.80;100.00
70815;BME280;58428;49.478;10.986;2023-07-02T22:46:04;98029.75;;;17.72;100.00
70815;BME280;58428;49.478;10.986;2023-07-02T22:48:30;98030.09;;;17.67;100.00
70815;BME280;58428;49.478;10.986;2023-07-02T22:50:56;98033.19;;;17.59;100.00
70815;BME280;58428;49.478;10.986;2023-07-02T22:53:22;98028.84;;;17.54;100.00
70815;BME280;58428;49.478;10.986;2023-07-02T22:55:48;98031.97;;;17.53;100.00
70815;BME280;58428;49.478;10.986;2023-07-02T22:58:14;98023.72;;;17.46;100.00
70815;BME280;58428;49.478;10.986;2023-07-02T23:00:39;98029.56;;;17.44;100.00
70815;BME280;58428;49.478;10.986;2023-07-02T23:03:04;98029.16;;;17.42;100.00
70815;BME280;58428;49.478;10.986;2023-07-02T23:05:30;98031.84;;;17.39;100.00
70815;BME280;58428;49.478;10.986;2023-07-02T23:07:55;98018.13;;;17.32;100.00
70815;BME280;58428;49.478;10.986;2023-07-02T23:10:20;98016.16;;;17.29;100.00
70815;BME280;58428;49.478;10.986;2023-07-02T23:12:49;98014.97;;;17.27;100.00
70815;BME280;58428;49.478;10.986;2023-07-02T23:15:18;98021.94;;;17.21;100.00
70815;BME280;58428;49.478;10.986;2023-07-02T23:17:53;98019.53;;;17.16;100.00
70815;BME280;58428;49.478;10.986;2023-07-02T23:20:19;98024.94;;;17.12;100.00
70815;BME280;58428;49.478;10.986;2023-07-02T23:22:46;98024.16;;;17.12;100.00
70815;BME280;58428;49.478;10.986;2023-07-02T23:25:18;98023.75;;;17.10;100.00
70815;BME280;58428;49.478;10.986;2023-07-02T23:27:48;98024.50;;;17.07;100.00
70815;BME280;58428;49.478;10.986;2023-07-02T23:30:18;98031.50;;;17.04;100.00
70815;BME280;58428;49.478;10.986;2023-07-02T23:32:47;98017.03;;;17.00;100.00
70815;BME280;58428;49.478;10.986;2023-07-02T23:35:15;98019.03;;;17.03;100.00
70815;BME280;58428;49.478;10.986;2023-07-02T23:37:41;98021.75;;;17.03;100.00
70815;BME280;58428;49.478;10.986;2023-07-02T23:40:12;98024.00;;;16.94;100.00
70815;BME280;58428;49.478;10.986;2023-07-02T23:42:41;98018.50;;;16.91;100.00
70815;BME280;58428;49.478;10.986;2023-07-02T23:45:09;98018.84;;;16.90;100.00
70815;BME280;58428;49.478;10.986;2023-07-02T23:47:35;98018.44;;;16.88;100.00
70815;BME280;58428;49.478;10.986;2023-07-02T23:50:01;98019.25;;;16.88;100.00
70815;BME280;58428;49.478;10.986;2023-07-02T23:52:28;98023.13;;;16.87;100.00
70815;BME280;58428;49.478;10.986;2023-07-02T23:54:57;98027.78;;;16.83;100.00
70815;BME280;58428;49.478;10.986;2023-07-02T23:57:23;98019.16;;;16.81;100.00
70815;BME280;58428;49.478;10.986;2023-07-02T23:59:48;98021.13;;;16.81;100.00
